createdAt,value
2018-12-27T00:00:26.365Z,20.53
2018-12-27T00:02:59.531Z,20.43
2018-12-27T00:05:32.603Z,19.87
2018-12-27T00:08:03.240Z,21.90
2018-12-27T00:10:32.904Z,20.63
2018-12-27T00:13:02.531Z,21.80
2018-12-27T00:15:34.840Z,21.40
2018-12-27T00:18:04.460Z,22.43
2018-12-27T00:20:34.188Z,21.30
2018-12-27T00:23:03.964Z,21.50
2018-12-27T00:25:33.621Z,20.23
2018-12-27T00:28:03.343Z,21.07
2018-12-27T00:30:33.116Z,19.20
2018-12-27T00:33:03.505Z,20.90
2018-12-27T00:35:33.405Z,21.17
2018-12-27T00:38:03.220Z,21.73
2018-12-27T00:40:33.052Z,20.07
2018-12-27T00:43:02.952Z,19.47
2018-12-27T00:45:33.708Z,19.37
2018-12-27T00:48:03.541Z,20.63
2018-12-27T00:50:33.428Z,20.57
2018-12-27T00:53:03.239Z,19.80
2018-12-27T00:55:33.311Z,20.17
2018-12-27T00:58:03.198Z,20.37
2018-12-27T01:00:32.994Z,20.13
2018-12-27T01:03:10.862Z,20.87
2018-12-27T01:05:35.503Z,19.47
2018-12-27T01:08:05.468Z,20.27
2018-12-27T01:10:37.008Z,19.47
2018-12-27T01:13:06.986Z,18.70
2018-12-27T01:15:36.773Z,17.83
2018-12-27T01:18:06.519Z,18.17
2018-12-27T01:20:37.294Z,18.30
2018-12-27T01:23:07.122Z,19.50
2018-12-27T01:25:36.884Z,21.13
2018-12-27T01:28:06.747Z,18.17
2018-12-27T01:30:36.778Z,18.20
2018-12-27T01:33:06.661Z,20.90
2018-12-27T01:35:39.473Z,17.77
2018-12-27T01:38:09.416Z,19.67
2018-12-27T01:40:39.247Z,18.17
2018-12-27T01:43:09.106Z,19.00
2018-12-27T01:45:39.074Z,17.40
2018-12-27T01:48:09.852Z,18.73
2018-12-27T01:50:39.789Z,18.13
2018-12-27T01:53:09.611Z,18.87
2018-12-27T01:55:39.590Z,17.97
2018-12-27T01:58:12.132Z,18.50
2018-12-27T02:00:42.893Z,20.90
2018-12-27T02:03:12.877Z,18.73
2018-12-27T02:05:42.748Z,18.83
2018-12-27T02:08:12.567Z,19.43
2018-12-27T02:10:42.366Z,19.70
2018-12-27T02:13:12.817Z,17.47
2018-12-27T02:15:42.736Z,17.83
2018-12-27T02:18:12.632Z,18.53
2018-12-27T02:20:42.432Z,19.50
2018-12-27T02:23:12.322Z,19.50
2018-12-27T02:25:42.119Z,17.83
2018-12-27T02:28:11.943Z,18.57
2018-12-27T02:30:42.808Z,18.67
2018-12-27T02:33:12.650Z,18.60
2018-12-27T02:35:42.457Z,20.00
2018-12-27T02:38:12.320Z,17.83
2018-12-27T02:40:42.117Z,18.13
2018-12-27T02:43:11.944Z,18.80
2018-12-27T02:45:41.787Z,20.17
2018-12-27T02:48:11.588Z,20.30
2018-12-27T02:50:41.532Z,20.07
2018-12-27T02:53:11.359Z,19.17
2018-12-27T02:55:41.142Z,18.80
2018-12-27T02:58:10.971Z,20.47
2018-12-27T03:00:41.871Z,20.20
2018-12-27T03:03:11.669Z,19.13
2018-12-27T03:05:42.941Z,21.07
2018-12-27T03:08:12.723Z,18.87
2018-12-27T03:10:42.586Z,21.47
2018-12-27T03:13:12.479Z,20.87
2018-12-27T03:15:42.451Z,19.33
2018-12-27T03:18:14.315Z,21.40
2018-12-27T03:20:46.119Z,16.90
2018-12-27T03:23:15.996Z,20.57
2018-12-27T03:25:45.880Z,21.57
2018-12-27T03:28:15.784Z,18.07
2018-12-27T03:30:45.656Z,19.47
2018-12-27T03:33:16.655Z,18.27
2018-12-27T03:35:46.615Z,18.37
2018-12-27T03:38:20.858Z,17.63
2018-12-27T03:40:50.631Z,21.67
2018-12-27T03:43:20.474Z,19.70
2018-12-27T03:45:51.814Z,19.77
2018-12-27T03:48:23.254Z,18.20
2018-12-27T03:50:58.926Z,21.73
2018-12-27T03:53:28.899Z,18.10
2018-12-27T03:55:58.709Z,21.03
2018-12-27T03:58:28.520Z,19.37
2018-12-27T04:00:58.418Z,18.53
2018-12-27T04:03:29.128Z,17.20
2018-12-27T04:05:59.894Z,18.70
2018-12-27T04:08:29.722Z,18.67
2018-12-27T04:11:09.316Z,21.27
2018-12-27T04:13:41.136Z,18.63
2018-12-27T04:16:11.773Z,21.30
2018-12-27T04:18:42.417Z,20.10
2018-12-27T04:21:12.360Z,21.67
2018-12-27T04:23:42.608Z,19.60
2018-12-27T04:26:13.521Z,18.70
2018-12-27T04:28:43.117Z,20.30
2018-12-27T04:31:12.973Z,19.93
2018-12-27T04:33:43.038Z,18.70
2018-12-27T04:36:12.979Z,20.13
2018-12-27T04:38:42.663Z,20.20
2018-12-27T04:41:12.252Z,19.47
2018-12-27T04:43:42.091Z,20.40
2018-12-27T04:46:11.953Z,19.47
2018-12-27T04:48:41.616Z,20.10
2018-12-27T04:51:11.324Z,18.77
2018-12-27T04:53:42.685Z,20.37
2018-12-27T04:56:12.330Z,19.43
2018-12-27T04:58:42.100Z,19.50
2018-12-27T05:01:12.096Z,19.10
2018-12-27T05:03:41.717Z,20.90
2018-12-27T05:06:11.432Z,19.53
2018-12-27T05:08:43.181Z,23.30
2018-12-27T05:11:12.898Z,18.27
2018-12-27T05:13:42.521Z,20.43
2018-12-27T05:16:12.105Z,21.10
2018-12-27T05:18:42.670Z,20.63
2018-12-27T05:21:15.243Z,20.50
2018-12-27T05:23:44.775Z,19.97
2018-12-27T05:26:14.384Z,17.80
2018-12-27T05:28:47.867Z,20.40
2018-12-27T05:31:17.654Z,21.00
2018-12-27T05:33:47.314Z,20.27
2018-12-27T05:36:17.024Z,22.60
2018-12-27T05:38:46.827Z,19.47
2018-12-27T05:41:16.515Z,19.30
2018-12-27T05:43:46.160Z,21.37
2018-12-27T05:46:15.791Z,22.73
2018-12-27T05:48:45.416Z,21.00
2018-12-27T05:51:15.094Z,21.93
2018-12-27T05:53:44.743Z,21.90
2018-12-27T05:56:14.375Z,23.50
2018-12-27T05:58:46.661Z,22.70
2018-12-27T06:01:17.928Z,20.67
2018-12-27T06:03:47.546Z,22.33
2018-12-27T06:06:17.150Z,21.17
2018-12-27T06:08:49.963Z,21.93
2018-12-27T06:11:19.602Z,21.67
2018-12-27T06:13:49.389Z,24.80
2018-12-27T06:16:20.220Z,21.47
2018-12-27T06:18:52.812Z,23.00
2018-12-27T06:21:22.462Z,22.60
2018-12-27T06:23:53.141Z,21.97
2018-12-27T06:26:22.864Z,22.83
2018-12-27T06:28:52.567Z,22.40
2018-12-27T06:31:22.200Z,23.47
2018-12-27T06:33:52.938Z,21.77
2018-12-27T06:36:23.560Z,20.60
2018-12-27T06:38:53.213Z,21.40
2018-12-27T06:41:22.872Z,20.20
2018-12-27T06:43:52.450Z,21.03
2018-12-27T06:46:22.169Z,22.60
2018-12-27T06:48:55.182Z,22.27
2018-12-27T06:51:26.481Z,22.93
2018-12-27T06:53:56.128Z,22.33
2018-12-27T06:56:25.811Z,21.90
2018-12-27T06:58:55.851Z,22.23
2018-12-27T07:01:25.574Z,23.10
2018-12-27T07:03:56.335Z,20.77
2018-12-27T07:06:25.912Z,22.90
2018-12-27T07:08:55.680Z,20.17
2018-12-27T07:11:25.324Z,22.87
2018-12-27T07:13:55.884Z,22.40
2018-12-27T07:16:25.647Z,23.53
2018-12-27T07:18:55.224Z,21.77
2018-12-27T07:21:25.725Z,20.23
2018-12-27T07:23:55.498Z,24.03
2018-12-27T07:26:25.349Z,23.00
2018-12-27T07:28:54.973Z,20.97
2018-12-27T07:31:24.676Z,19.80
2018-12-27T07:33:54.487Z,23.20
2018-12-27T07:36:25.204Z,24.53
2018-12-27T07:38:54.829Z,24.10
2018-12-27T07:41:24.481Z,24.50
2018-12-27T07:43:55.127Z,20.93
2018-12-27T07:46:24.779Z,24.07
2018-12-27T07:48:54.369Z,22.53
2018-12-27T07:51:24.060Z,20.80
2018-12-27T07:53:53.885Z,23.10
2018-12-27T07:56:23.796Z,22.47
2018-12-27T07:58:53.851Z,22.30
2018-12-27T08:01:23.566Z,22.13
2018-12-27T08:03:53.242Z,20.17
2018-12-27T08:06:25.040Z,20.50
2018-12-27T08:08:54.963Z,24.33
2018-12-27T08:11:25.629Z,24.03
2018-12-27T08:13:55.690Z,21.70
2018-12-27T08:16:25.432Z,21.87
2018-12-27T08:18:57.694Z,23.97
2018-12-27T08:21:27.420Z,24.90
2018-12-27T08:23:57.209Z,20.97
2018-12-27T08:26:28.031Z,21.50
2018-12-27T08:28:57.596Z,22.23
2018-12-27T08:31:28.657Z,23.43
2018-12-27T08:33:58.832Z,23.97
2018-12-27T08:36:30.601Z,23.13
2018-12-27T08:39:01.330Z,23.17
2018-12-27T08:41:32.761Z,23.97
2018-12-27T08:44:02.564Z,20.43
2018-12-27T08:46:32.311Z,24.73
2018-12-27T08:49:01.957Z,23.50
2018-12-27T08:51:31.554Z,21.80
2018-12-27T08:54:01.581Z,20.00
2018-12-27T08:56:31.256Z,19.23
2018-12-27T08:59:01.164Z,19.50
2018-12-27T09:01:32.493Z,21.63
2018-12-27T09:04:02.248Z,20.60
2018-12-27T09:06:32.951Z,20.80
2018-12-27T09:09:05.864Z,19.77
2018-12-27T09:11:38.234Z,20.23
2018-12-27T09:14:08.004Z,20.40
2018-12-27T09:16:37.688Z,22.10
2018-12-27T09:19:07.378Z,19.53
2018-12-27T09:21:38.302Z,21.00
2018-12-27T09:24:08.089Z,19.43
2018-12-27T09:26:37.737Z,20.57
2018-12-27T09:29:07.782Z,20.97
2018-12-27T09:31:39.194Z,19.00
2018-12-27T09:34:10.127Z,19.97
2018-12-27T09:36:42.288Z,18.70
2018-12-27T09:39:12.961Z,19.47
2018-12-27T09:41:42.716Z,18.60
2018-12-27T09:44:12.421Z,17.00
2018-12-27T09:46:42.104Z,18.27
2018-12-27T09:49:12.683Z,18.03
2018-12-27T09:51:42.545Z,16.70
2018-12-27T09:54:12.183Z,17.23
2018-12-27T09:56:43.854Z,16.20
2018-12-27T09:59:13.737Z,17.57
2018-12-27T10:01:43.426Z,17.30
2018-12-27T10:04:13.048Z,17.47
2018-12-27T10:06:42.850Z,15.97
2018-12-27T10:09:12.862Z,16.17
2018-12-27T10:11:44.801Z,17.27
2018-12-27T10:14:14.598Z,16.33
2018-12-27T10:16:45.940Z,18.23
2018-12-27T10:19:15.836Z,19.37
2018-12-27T10:21:45.738Z,19.20
2018-12-27T10:24:15.505Z,18.63
2018-12-27T10:26:45.581Z,18.97
2018-12-27T10:29:15.245Z,18.60
2018-12-27T10:31:50.921Z,19.27
2018-12-27T10:34:21.663Z,18.17
2018-12-27T10:36:51.645Z,16.93
2018-12-27T10:39:22.830Z,17.70
2018-12-27T10:41:53.485Z,19.13
2018-12-27T10:44:23.381Z,17.67
2018-12-27T10:46:53.122Z,17.10
2018-12-27T10:49:22.779Z,20.87
2018-12-27T10:51:52.593Z,19.03
2018-12-27T10:54:25.567Z,19.10
2018-12-27T10:56:55.337Z,19.60
2018-12-27T10:59:32.773Z,17.53
2018-12-27T11:02:02.445Z,16.93
2018-12-27T11:04:32.095Z,19.20
2018-12-27T11:07:01.843Z,18.23
2018-12-27T11:09:31.484Z,18.70
2018-12-27T11:12:05.767Z,18.10
2018-12-27T11:14:35.487Z,17.20
2018-12-27T11:17:05.390Z,17.90
2018-12-27T11:19:35.171Z,17.43
2018-12-27T11:22:05.955Z,19.13
2018-12-27T11:24:35.736Z,16.77
2018-12-27T11:27:05.581Z,17.30
2018-12-27T11:29:35.432Z,15.03
2018-12-27T11:32:05.167Z,14.67
2018-12-27T11:34:35.998Z,16.00
2018-12-27T11:37:06.182Z,14.90
2018-12-27T11:39:45.930Z,17.03
2018-12-27T11:42:15.653Z,15.50
2018-12-27T11:44:46.391Z,15.90
2018-12-27T11:47:16.276Z,15.63
2018-12-27T11:49:49.561Z,16.40
2018-12-27T11:52:23.032Z,14.10
2018-12-27T11:54:53.119Z,15.40
2018-12-27T11:57:23.160Z,15.50
2018-12-27T11:59:53.792Z,14.57
2018-12-27T12:02:30.893Z,15.87
2018-12-27T12:04:55.229Z,14.00
2018-12-27T12:07:26.298Z,13.63
2018-12-27T12:09:59.312Z,12.97
2018-12-27T12:12:36.283Z,14.10
2018-12-27T12:15:07.841Z,15.10
2018-12-27T12:17:37.703Z,14.60
2018-12-27T12:20:09.120Z,14.40
2018-12-27T12:22:39.008Z,15.00
2018-12-27T12:25:10.797Z,14.30
2018-12-27T12:27:41.779Z,16.43
2018-12-27T12:30:11.558Z,14.93
2018-12-27T12:32:42.379Z,15.03
2018-12-27T12:35:12.281Z,14.90
2018-12-27T12:37:42.472Z,14.50
2018-12-27T12:40:13.525Z,15.90
2018-12-27T12:42:43.482Z,15.23
2018-12-27T12:45:15.525Z,16.77
2018-12-27T12:47:47.744Z,16.47
2018-12-27T12:50:18.588Z,14.17
2018-12-27T12:52:49.617Z,15.33
2018-12-27T12:55:20.019Z,17.03
2018-12-27T12:57:51.687Z,16.37
2018-12-27T13:00:23.765Z,15.73
2018-12-27T13:02:54.652Z,14.77
2018-12-27T13:05:25.343Z,15.80
2018-12-27T13:07:55.169Z,14.80
2018-12-27T13:10:25.193Z,17.00
2018-12-27T13:12:55.090Z,15.30
2018-12-27T13:15:25.023Z,16.03
2018-12-27T13:17:56.612Z,15.07
2018-12-27T13:20:27.359Z,15.23
2018-12-27T13:22:58.251Z,15.00
2018-12-27T13:25:33.171Z,15.00
2018-12-27T13:28:04.639Z,15.63
2018-12-27T13:30:39.007Z,13.73
2018-12-27T13:33:08.838Z,14.67
2018-12-27T13:35:39.770Z,14.30
2018-12-27T13:38:09.649Z,15.57
2018-12-27T13:40:40.541Z,14.00
2018-12-27T13:43:10.691Z,15.10
2018-12-27T13:45:40.813Z,14.23
2018-12-27T13:48:12.222Z,14.40
2018-12-27T13:50:43.997Z,14.13
2018-12-27T13:53:13.897Z,14.47
2018-12-27T13:55:46.470Z,15.47
2018-12-27T13:58:17.499Z,14.90
2018-12-27T14:00:52.123Z,15.13
2018-12-27T14:03:21.972Z,15.13
2018-12-27T14:05:55.466Z,15.10
2018-12-27T14:08:26.332Z,15.37
2018-12-27T14:10:56.018Z,14.33
2018-12-27T14:13:26.998Z,16.30
2018-12-27T14:16:01.637Z,16.80
2018-12-27T14:18:31.418Z,14.03
2018-12-27T14:21:01.352Z,14.43
2018-12-27T14:23:32.046Z,15.63
2018-12-27T14:26:02.072Z,15.40
2018-12-27T14:28:33.001Z,15.03
2018-12-27T14:31:02.796Z,15.40
2018-12-27T14:33:32.686Z,14.47
2018-12-27T14:36:02.562Z,14.50
2018-12-27T14:38:33.844Z,16.10
2018-12-27T14:41:03.723Z,14.97
2018-12-27T14:43:33.682Z,16.57
2018-12-27T14:46:06.530Z,16.30
2018-12-27T14:48:36.282Z,14.57
2018-12-27T14:51:05.951Z,16.57
2018-12-27T14:53:35.580Z,16.00
2018-12-27T14:56:05.588Z,15.40
2018-12-27T14:58:35.372Z,16.60
2018-12-27T15:01:05.255Z,17.27
2018-12-27T15:03:37.038Z,15.60
2018-12-27T15:06:06.879Z,15.90
2018-12-27T15:08:36.767Z,15.80
2018-12-27T15:11:06.600Z,16.10
2018-12-27T15:13:37.817Z,16.63
2018-12-27T15:16:07.761Z,16.00
2018-12-27T15:18:38.098Z,15.47
2018-12-27T15:21:07.920Z,18.10
2018-12-27T15:23:40.417Z,15.27
2018-12-27T15:26:10.190Z,16.30
2018-12-27T15:28:39.935Z,15.30
2018-12-27T15:31:10.174Z,17.20
2018-12-27T15:33:43.658Z,15.83
2018-12-27T15:36:18.113Z,15.90
2018-12-27T15:39:01.161Z,15.30
2018-12-27T15:41:32.900Z,14.73
2018-12-27T15:44:09.325Z,15.27
2018-12-27T15:46:39.211Z,16.67
2018-12-27T15:49:13.594Z,16.93
2018-12-27T15:51:43.835Z,17.10
2018-12-27T15:54:18.317Z,14.20
2018-12-27T15:56:55.306Z,15.60
2018-12-27T15:59:32.017Z,15.43
2018-12-27T16:02:01.435Z,16.33
2018-12-27T16:04:40.635Z,16.97
2018-12-27T16:07:10.828Z,16.37
2018-12-27T16:09:43.824Z,17.53
2018-12-27T16:12:23.376Z,16.13
2018-12-27T16:14:54.355Z,18.47
2018-12-27T16:17:30.576Z,17.37
2018-12-27T16:20:00.536Z,21.20
2018-12-27T16:22:32.822Z,17.67
2018-12-27T16:25:04.455Z,18.00
2018-12-27T16:27:39.669Z,17.17
2018-12-27T16:30:09.740Z,17.70
2018-12-27T16:32:39.459Z,16.97
2018-12-27T16:35:10.270Z,17.00
2018-12-27T16:37:42.273Z,17.00
2018-12-27T16:40:13.396Z,17.27
2018-12-27T16:42:55.169Z,17.03
2018-12-27T16:45:31.805Z,17.40
2018-12-27T16:48:11.989Z,18.17
2018-12-27T16:50:45.904Z,17.10
2018-12-27T16:53:17.880Z,19.03
2018-12-27T16:55:49.116Z,23.63
2018-12-27T16:58:20.809Z,23.27
2018-12-27T17:00:54.579Z,20.20
2018-12-27T17:03:24.977Z,19.40
2018-12-27T17:05:58.063Z,18.90
2018-12-27T17:08:53.932Z,17.27
2018-12-27T17:11:04.522Z,17.93
2018-12-27T17:16:31.879Z,18.97
2018-12-27T17:19:01.739Z,22.00
2018-12-27T17:21:31.659Z,22.00
2018-12-27T17:24:01.511Z,20.03
2018-12-27T17:26:33.282Z,17.37
2018-12-27T17:29:03.303Z,20.00
2018-12-27T17:31:37.441Z,18.60
2018-12-27T17:34:09.732Z,19.00
2018-12-27T17:36:39.569Z,17.43
2018-12-27T17:39:09.545Z,18.13
2018-12-27T17:41:39.684Z,19.00
2018-12-27T17:44:10.917Z,22.07
2018-12-27T17:46:43.321Z,20.90
2018-12-27T17:49:14.057Z,18.17
2018-12-27T17:51:48.414Z,18.93
2018-12-27T17:54:20.143Z,18.53
2018-12-27T17:56:51.796Z,18.00
2018-12-27T17:59:22.717Z,18.17
2018-12-27T18:01:52.695Z,18.10
2018-12-27T18:04:25.570Z,19.43
2018-12-27T18:06:55.417Z,19.33
2018-12-27T18:09:25.219Z,17.90
2018-12-27T18:11:55.914Z,17.97
2018-12-27T18:14:27.772Z,16.73
2018-12-27T18:16:57.658Z,17.03
2018-12-27T18:19:27.562Z,16.90
2018-12-27T18:21:57.373Z,18.40
2018-12-27T18:24:27.402Z,17.73
2018-12-27T18:26:58.958Z,16.73
2018-12-27T18:29:28.859Z,15.97
2018-12-27T18:31:58.517Z,17.27
2018-12-27T18:34:30.445Z,17.93
2018-12-27T18:37:00.513Z,18.80
2018-12-27T18:39:32.765Z,15.83
2018-12-27T18:42:04.803Z,19.00
2018-12-27T18:44:34.883Z,18.43
2018-12-27T18:47:12.397Z,17.30
2018-12-27T18:49:42.407Z,19.67
2018-12-27T18:52:12.290Z,19.47
2018-12-27T18:54:42.231Z,22.53
2018-12-27T18:57:16.296Z,21.50
2018-12-27T18:59:46.174Z,19.87
2018-12-27T19:02:19.447Z,21.50
2018-12-27T19:04:54.474Z,20.00
2018-12-27T19:07:24.318Z,18.63
2018-12-27T19:09:59.090Z,19.03
2018-12-27T19:13:06.365Z,22.50
2018-12-27T19:15:42.545Z,20.33
2018-12-27T19:18:19.908Z,20.37
2018-12-27T19:20:54.468Z,18.93
2018-12-27T19:23:24.515Z,22.03
2018-12-27T19:25:54.318Z,20.87
2018-12-27T19:28:26.122Z,20.77
2018-12-27T19:30:55.844Z,21.70
2018-12-27T19:33:25.840Z,20.23
2018-12-27T19:35:55.592Z,20.10
2018-12-27T19:38:25.357Z,21.30
2018-12-27T19:40:59.371Z,21.60
2018-12-27T19:43:34.131Z,20.83
2018-12-27T19:46:03.971Z,21.60
2018-12-27T19:48:33.618Z,24.40
2018-12-27T19:51:03.473Z,23.73
2018-12-27T19:53:38.006Z,25.53
2018-12-27T19:56:10.873Z,23.60
2018-12-27T19:58:40.883Z,23.83
2018-12-27T20:01:10.646Z,23.43
2018-12-27T20:03:40.509Z,24.37
2018-12-27T20:06:11.797Z,23.37
2018-12-27T20:08:47.251Z,24.20
2018-12-27T20:11:18.484Z,25.30
2018-12-27T20:13:49.518Z,25.30
2018-12-27T20:16:25.007Z,24.20
2018-12-27T20:19:00.318Z,25.90
2018-12-27T20:21:32.101Z,25.77
2018-12-27T20:24:02.960Z,26.33
2018-12-27T20:26:34.277Z,27.00
2018-12-27T20:29:06.075Z,25.07
2018-12-27T20:31:35.705Z,25.23
2018-12-27T20:34:09.265Z,25.30
2018-12-27T20:36:41.472Z,26.07
2018-12-27T20:39:11.573Z,23.97
2018-12-27T20:41:41.524Z,27.37
2018-12-27T20:44:12.956Z,23.50
2018-12-27T20:46:44.406Z,23.77
2018-12-27T20:49:15.966Z,26.97
2018-12-27T20:51:45.679Z,24.47
2018-12-27T20:54:17.135Z,23.80
2018-12-27T20:56:47.752Z,25.27
2018-12-27T20:59:18.386Z,24.77
2018-12-27T21:01:49.114Z,22.97
2018-12-27T21:04:21.554Z,25.80
2018-12-27T21:06:52.512Z,23.53
2018-12-27T21:09:22.516Z,26.00
2018-12-27T21:11:52.321Z,22.60
2018-12-27T21:14:22.127Z,24.20
2018-12-27T21:16:56.659Z,25.60
2018-12-27T21:19:26.399Z,25.90
2018-12-27T21:21:56.214Z,25.70
2018-12-27T21:24:27.860Z,25.90
2018-12-27T21:26:57.800Z,24.77
2018-12-27T21:29:41.489Z,25.50
2018-12-27T21:32:13.394Z,26.40
2018-12-27T21:34:43.446Z,27.40
2018-12-27T21:37:16.288Z,26.50
2018-12-27T21:39:46.172Z,25.53
2018-12-27T21:42:16.153Z,26.27
2018-12-27T21:44:46.011Z,28.27
2018-12-27T21:47:15.684Z,26.30
2018-12-27T21:49:47.347Z,25.23
2018-12-27T21:52:18.145Z,24.30
2018-12-27T21:54:47.966Z,23.50
2018-12-27T21:57:17.706Z,24.83
2018-12-27T21:59:47.595Z,24.47
2018-12-27T22:02:17.393Z,26.37
2018-12-27T22:04:51.771Z,24.77
2018-12-27T22:07:23.546Z,21.83
2018-12-27T22:09:53.348Z,25.07
2018-12-27T22:12:23.378Z,20.97
2018-12-27T22:14:54.256Z,24.43
2018-12-27T22:17:23.952Z,22.77
2018-12-27T22:20:02.773Z,23.10
2018-12-27T22:22:41.006Z,24.30
2018-12-27T22:25:10.906Z,23.00
2018-12-27T22:27:40.689Z,24.40
2018-12-27T22:30:10.434Z,21.80
2018-12-27T22:32:43.670Z,23.97
2018-12-27T22:35:13.390Z,23.60
2018-12-27T22:37:43.008Z,24.70
2018-12-27T22:40:12.986Z,23.70
2018-12-27T22:42:43.863Z,24.50
2018-12-27T22:45:19.322Z,23.20
2018-12-27T22:47:52.076Z,22.57
2018-12-27T22:50:21.791Z,21.20
2018-12-27T22:52:53.369Z,22.90
2018-12-27T22:55:24.604Z,23.40
2018-12-27T22:57:54.769Z,22.30
2018-12-27T23:00:26.373Z,24.97
2018-12-27T23:02:56.289Z,25.13
2018-12-27T23:05:28.871Z,22.33
2018-12-27T23:07:59.554Z,22.20
2018-12-27T23:10:29.456Z,24.40
2018-12-27T23:13:00.569Z,22.47
2018-12-27T23:15:30.224Z,25.53
2018-12-27T23:18:05.997Z,21.40
2018-12-27T23:20:35.723Z,26.23
2018-12-27T23:23:06.438Z,22.17
2018-12-27T23:25:37.677Z,21.47
2018-12-27T23:28:07.590Z,24.67
2018-12-27T23:30:37.444Z,23.13
2018-12-27T23:33:08.684Z,22.23
2018-12-27T23:35:39.806Z,23.13
2018-12-27T23:38:10.570Z,25.27
2018-12-27T23:40:40.245Z,23.57
2018-12-27T23:43:10.860Z,23.57
2018-12-27T23:45:40.969Z,29.77
2018-12-27T23:48:10.695Z,38.40
2018-12-27T23:50:40.527Z,34.30
2018-12-27T23:53:11.141Z,28.17
2018-12-27T23:55:41.092Z,27.43
2018-12-27T23:58:10.843Z,38.00
